sensor_id;sensor_type;location;lat;lon;timestamp;temperature;humidity
12853;DHT22;6495;51.808;7.478;2022-09-23T00:02:04;12.10;96.10
12853;DHT22;6495;51.808;7.478;2022-09-23T00:04:33;12.10;96.10
12853;DHT22;6495;51.808;7.478;2022-09-23T00:07:01;12.10;96.20
12853;DHT22;6495;51.808;7.478;2022-09-23T00:09:31;12.10;96.10
12853;DHT22;6495;51.808;7.478;2022-09-23T00:11:59;12.10;96.10
12853;DHT22;6495;51.808;7.478;2022-09-23T00:14:33;12.10;96.10
12853;DHT22;6495;51.808;7.478;2022-09-23T00:17:03;12.10;96.10
12853;DHT22;6495;51.808;7.478;2022-09-23T00:19:32;12.10;96.00
12853;DHT22;6495;51.808;7.478;2022-09-23T00:22:00;12.20;96.00
12853;DHT22;6495;51.808;7.478;2022-09-23T00:24:30;12.20;96.00
12853;DHT22;6495;51.808;7.478;2022-09-23T00:26:59;12.20;95.90
12853;DHT22;6495;51.808;7.478;2022-09-23T00:29:27;12.20;95.90
12853;DHT22;6495;51.808;7.478;2022-09-23T00:31:55;12.20;95.90
12853;DHT22;6495;51.808;7.478;2022-09-23T00:34:23;12.20;95.90
12853;DHT22;6495;51.808;7.478;2022-09-23T00:36:51;12.20;95.80
12853;DHT22;6495;51.808;7.478;2022-09-23T00:39:19;12.20;95.80
12853;DHT22;6495;51.808;7.478;2022-09-23T00:41:49;12.20;95.80
12853;DHT22;6495;51.808;7.478;2022-09-23T00:44:39;12.20;95.70
12853;DHT22;6495;51.808;7.478;2022-09-23T00:47:15;12.10;95.70
12853;DHT22;6495;51.808;7.478;2022-09-23T00:49:51;12.10;95.70
12853;DHT22;6495;51.808;7.478;2022-09-23T00:52:28;12.10;95.70
12853;DHT22;6495;51.808;7.478;2022-09-23T00:55:00;12.10;95.70
12853;DHT22;6495;51.808;7.478;2022-09-23T00:57:33;12.10;95.70
12853;DHT22;6495;51.808;7.478;2022-09-23T01:00:04;12.10;95.70
12853;DHT22;6495;51.808;7.478;2022-09-23T01:02:33;12.10;95.70
12853;DHT22;6495;51.808;7.478;2022-09-23T01:05:05;12.10;95.80
12853;DHT22;6495;51.808;7.478;2022-09-23T01:07:34;12.10;95.70
12853;DHT22;6495;51.808;7.478;2022-09-23T01:10:03;12.10;95.80
12853;DHT22;6495;51.808;7.478;2022-09-23T01:12:52;12.00;95.70
12853;DHT22;6495;51.808;7.478;2022-09-23T01:15:38;12.00;95.70
12853;DHT22;6495;51.808;7.478;2022-09-23T01:18:22;12.00;95.80
12853;DHT22;6495;51.808;7.478;2022-09-23T01:21:14;12.10;96.00
12853;DHT22;6495;51.808;7.478;2022-09-23T01:24:21;12.00;96.00
12853;DHT22;6495;51.808;7.478;2022-09-23T01:30:42;12.00;96.30
12853;DHT22;6495;51.808;7.478;2022-09-23T01:33:21;12.00;96.30
12853;DHT22;6495;51.808;7.478;2022-09-23T01:36:10;12.00;96.30
12853;DHT22;6495;51.808;7.478;2022-09-23T01:38:53;12.00;96.40
12853;DHT22;6495;51.808;7.478;2022-09-23T01:41:44;11.90;96.40
12853;DHT22;6495;51.808;7.478;2022-09-23T01:44:21;11.90;96.50
12853;DHT22;6495;51.808;7.478;2022-09-23T01:47:00;11.90;96.60
12853;DHT22;6495;51.808;7.478;2022-09-23T01:49:41;11.90;96.60
12853;DHT22;6495;51.808;7.478;2022-09-23T01:52:23;11.90;96.70
12853;DHT22;6495;51.808;7.478;2022-09-23T01:54:59;11.80;96.70
12853;DHT22;6495;51.808;7.478;2022-09-23T01:57:34;11.80;96.80
12853;DHT22;6495;51.808;7.478;2022-09-23T02:00:10;11.80;96.80
12853;DHT22;6495;51.808;7.478;2022-09-23T02:02:47;11.80;96.90
12853;DHT22;6495;51.808;7.478;2022-09-23T02:05:24;11.80;96.90
12853;DHT22;6495;51.808;7.478;2022-09-23T02:07:58;11.80;96.80
12853;DHT22;6495;51.808;7.478;2022-09-23T02:10:33;11.80;96.80
12853;DHT22;6495;51.808;7.478;2022-09-23T02:13:08;11.80;96.80
12853;DHT22;6495;51.808;7.478;2022-09-23T02:15:45;11.80;96.70
12853;DHT22;6495;51.808;7.478;2022-09-23T02:18:21;11.80;96.70
12853;DHT22;6495;51.808;7.478;2022-09-23T02:20:56;11.80;96.70
12853;DHT22;6495;51.808;7.478;2022-09-23T02:23:31;11.80;96.70
12853;DHT22;6495;51.808;7.478;2022-09-23T02:26:07;11.80;96.70
12853;DHT22;6495;51.808;7.478;2022-09-23T02:28:48;11.70;96.80
12853;DHT22;6495;51.808;7.478;2022-09-23T02:31:28;11.70;96.80
12853;DHT22;6495;51.808;7.478;2022-09-23T02:34:14;11.70;96.80
12853;DHT22;6495;51.808;7.478;2022-09-23T02:36:55;11.70;96.80
12853;DHT22;6495;51.808;7.478;2022-09-23T02:39:38;11.70;96.90
12853;DHT22;6495;51.808;7.478;2022-09-23T02:42:17;11.70;96.90
12853;DHT22;6495;51.808;7.478;2022-09-23T02:44:48;11.70;96.90
12853;DHT22;6495;51.808;7.478;2022-09-23T02:47:18;11.70;96.90
12853;DHT22;6495;51.808;7.478;2022-09-23T02:49:52;11.60;96.80
12853;DHT22;6495;51.808;7.478;2022-09-23T02:52:22;11.60;96.90
12853;DHT22;6495;51.808;7.478;2022-09-23T02:54:51;11.60;96.90
12853;DHT22;6495;51.808;7.478;2022-09-23T02:57:19;11.60;96.90
12853;DHT22;6495;51.808;7.478;2022-09-23T02:59:48;11.60;96.90
12853;DHT22;6495;51.808;7.478;2022-09-23T03:02:44;11.60;96.90
12853;DHT22;6495;51.808;7.478;2022-09-23T03:05:26;11.60;96.90
12853;DHT22;6495;51.808;7.478;2022-09-23T03:08:09;11.60;97.00
12853;DHT22;6495;51.808;7.478;2022-09-23T03:10:57;11.50;97.00
12853;DHT22;6495;51.808;7.478;2022-09-23T03:13:36;11.50;97.10
12853;DHT22;6495;51.808;7.478;2022-09-23T03:16:22;11.50;97.10
12853;DHT22;6495;51.808;7.478;2022-09-23T03:19:02;11.50;97.20
12853;DHT22;6495;51.808;7.478;2022-09-23T03:21:46;11.50;97.40
12853;DHT22;6495;51.808;7.478;2022-09-23T03:24:19;11.50;97.50
12853;DHT22;6495;51.808;7.478;2022-09-23T03:26:50;11.50;97.70
12853;DHT22;6495;51.808;7.478;2022-09-23T03:29:21;11.40;97.70
12853;DHT22;6495;51.808;7.478;2022-09-23T03:31:51;11.40;97.90
12853;DHT22;6495;51.808;7.478;2022-09-23T03:34:24;11.40;98.00
12853;DHT22;6495;51.808;7.478;2022-09-23T03:36:59;11.30;98.00
12853;DHT22;6495;51.808;7.478;2022-09-23T03:39:35;11.30;98.20
12853;DHT22;6495;51.808;7.478;2022-09-23T03:42:10;11.30;98.30
12853;DHT22;6495;51.808;7.478;2022-09-23T03:44:43;11.30;98.40
12853;DHT22;6495;51.808;7.478;2022-09-23T03:47:13;11.20;98.40
12853;DHT22;6495;51.808;7.478;2022-09-23T03:49:45;11.20;98.50
12853;DHT22;6495;51.808;7.478;2022-09-23T03:52:16;11.20;98.60
12853;DHT22;6495;51.808;7.478;2022-09-23T03:54:46;11.20;98.60
12853;DHT22;6495;51.808;7.478;2022-09-23T03:57:15;11.20;98.80
12853;DHT22;6495;51.808;7.478;2022-09-23T03:59:43;11.10;98.80
12853;DHT22;6495;51.808;7.478;2022-09-23T04:02:11;11.10;98.90
12853;DHT22;6495;51.808;7.478;2022-09-23T04:04:42;11.10;98.90
12853;DHT22;6495;51.808;7.478;2022-09-23T04:07:11;11.10;99.00
12853;DHT22;6495;51.808;7.478;2022-09-23T04:09:40;11.00;99.10
12853;DHT22;6495;51.808;7.478;2022-09-23T04:12:11;11.00;99.20
12853;DHT22;6495;51.808;7.478;2022-09-23T04:14:41;11.00;99.30
12853;DHT22;6495;51.808;7.478;2022-09-23T04:17:10;11.00;99.40
12853;DHT22;6495;51.808;7.478;2022-09-23T04:19:39;10.90;99.40
12853;DHT22;6495;51.808;7.478;2022-09-23T04:22:08;10.90;99.40
12853;DHT22;6495;51.808;7.478;2022-09-23T04:24:36;10.90;99.50
12853;DHT22;6495;51.808;7.478;2022-09-23T04:27:05;10.90;99.60
12853;DHT22;6495;51.808;7.478;2022-09-23T04:29:33;10.80;99.60
12853;DHT22;6495;51.808;7.478;2022-09-23T04:32:01;10.80;99.70
12853;DHT22;6495;51.808;7.478;2022-09-23T04:34:49;10.80;99.80
12853;DHT22;6495;51.808;7.478;2022-09-23T04:37:29;10.80;99.80
12853;DHT22;6495;51.808;7.478;2022-09-23T04:39:59;10.70;99.90
12853;DHT22;6495;51.808;7.478;2022-09-23T04:42:29;10.70;99.90
12853;DHT22;6495;51.808;7.478;2022-09-23T04:44:58;10.70;99.90
12853;DHT22;6495;51.808;7.478;2022-09-23T04:47:27;10.70;99.90
12853;DHT22;6495;51.808;7.478;2022-09-23T04:49:58;10.60;99.90
12853;DHT22;6495;51.808;7.478;2022-09-23T04:52:26;10.60;99.90
12853;DHT22;6495;51.808;7.478;2022-09-23T04:54:54;10.60;99.90
12853;DHT22;6495;51.808;7.478;2022-09-23T04:57:23;10.50;99.90
12853;DHT22;6495;51.808;7.478;2022-09-23T04:59:53;10.50;99.90
12853;DHT22;6495;51.808;7.478;2022-09-23T05:02:23;10.50;99.90
12853;DHT22;6495;51.808;7.478;2022-09-23T05:04:51;10.50;99.90
12853;DHT22;6495;51.808;7.478;2022-09-23T05:07:20;10.40;99.90
12853;DHT22;6495;51.808;7.478;2022-09-23T05:09:48;10.40;99.90
12853;DHT22;6495;51.808;7.478;2022-09-23T05:12:16;10.40;99.90
12853;DHT22;6495;51.808;7.478;2022-09-23T05:14:44;10.40;99.90
12853;DHT22;6495;51.808;7.478;2022-09-23T05:17:14;10.30;99.90
12853;DHT22;6495;51.808;7.478;2022-09-23T05:19:42;10.30;99.90
12853;DHT22;6495;51.808;7.478;2022-09-23T05:22:10;10.30;99.90
12853;DHT22;6495;51.808;7.478;2022-09-23T05:24:38;10.30;99.90
12853;DHT22;6495;51.808;7.478;2022-09-23T05:27:06;10.20;99.90
12853;DHT22;6495;51.808;7.478;2022-09-23T05:29:35;10.20;99.90
12853;DHT22;6495;51.808;7.478;2022-09-23T05:32:04;10.20;99.90
12853;DHT22;6495;51.808;7.478;2022-09-23T05:34:33;10.20;99.90
12853;DHT22;6495;51.808;7.478;2022-09-23T05:37:01;10.20;99.90
12853;DHT22;6495;51.808;7.478;2022-09-23T05:39:30;10.10;99.90
12853;DHT22;6495;51.808;7.478;2022-09-23T05:41:58;10.10;99.90
12853;DHT22;6495;51.808;7.478;2022-09-23T05:44:26;10.10;99.90
12853;DHT22;6495;51.808;7.478;2022-09-23T05:46:55;10.10;99.90
12853;DHT22;6495;51.808;7.478;2022-09-23T05:49:23;10.10;99.90
12853;DHT22;6495;51.808;7.478;2022-09-23T05:52:13;10.10;99.90
12853;DHT22;6495;51.808;7.478;2022-09-23T05:54:42;10.10;99.90
12853;DHT22;6495;51.808;7.478;2022-09-23T05:57:10;10.10;99.90
12853;DHT22;6495;51.808;7.478;2022-09-23T05:59:38;10.00;99.90
12853;DHT22;6495;51.808;7.478;2022-09-23T06:02:08;10.00;99.90
12853;DHT22;6495;51.808;7.478;2022-09-23T06:04:36;10.00;99.90
12853;DHT22;6495;51.808;7.478;2022-09-23T06:07:04;10.00;99.90
12853;DHT22;6495;51.808;7.478;2022-09-23T06:09:34;10.00;99.90
12853;DHT22;6495;51.808;7.478;2022-09-23T06:12:03;10.00;99.90
12853;DHT22;6495;51.808;7.478;2022-09-23T06:14:32;10.00;99.90
12853;DHT22;6495;51.808;7.478;2022-09-23T06:17:02;10.00;99.90
12853;DHT22;6495;51.808;7.478;2022-09-23T06:19:31;10.00;99.90
12853;DHT22;6495;51.808;7.478;2022-09-23T06:21:59;10.00;99.90
12853;DHT22;6495;51.808;7.478;2022-09-23T06:24:27;10.00;99.90
12853;DHT22;6495;51.808;7.478;2022-09-23T06:26:58;10.00;99.90
12853;DHT22;6495;51.808;7.478;2022-09-23T06:29:28;10.00;99.90
12853;DHT22;6495;51.808;7.478;2022-09-23T06:31:58;10.00;99.90
12853;DHT22;6495;51.808;7.478;2022-09-23T06:34:27;10.00;99.90
12853;DHT22;6495;51.808;7.478;2022-09-23T06:36:57;10.00;99.90
12853;DHT22;6495;51.808;7.478;2022-09-23T06:39:34;10.00;99.90
12853;DHT22;6495;51.808;7.478;2022-09-23T06:42:05;10.00;99.90
12853;DHT22;6495;51.808;7.478;2022-09-23T06:44:33;10.00;99.90
12853;DHT22;6495;51.808;7.478;2022-09-23T06:47:01;10.00;99.90
12853;DHT22;6495;51.808;7.478;2022-09-23T06:49:29;10.10;99.90
12853;DHT22;6495;51.808;7.478;2022-09-23T06:51:57;10.10;99.90
12853;DHT22;6495;51.808;7.478;2022-09-23T06:54:26;10.10;99.90
12853;DHT22;6495;51.808;7.478;2022-09-23T06:56:54;10.10;99.90
12853;DHT22;6495;51.808;7.478;2022-09-23T06:59:23;10.10;99.90
12853;DHT22;6495;51.808;7.478;2022-09-23T07:01:51;10.20;99.90
12853;DHT22;6495;51.808;7.478;2022-09-23T07:04:20;10.20;99.90
12853;DHT22;6495;51.808;7.478;2022-09-23T07:06:54;10.30;99.90
12853;DHT22;6495;51.808;7.478;2022-09-23T07:09:22;10.30;99.90
12853;DHT22;6495;51.808;7.478;2022-09-23T07:11:51;10.40;99.90
12853;DHT22;6495;51.808;7.478;2022-09-23T07:14:19;10.40;99.90
12853;DHT22;6495;51.808;7.478;2022-09-23T07:16:49;10.50;99.90
12853;DHT22;6495;51.808;7.478;2022-09-23T07:19:18;10.50;99.90
12853;DHT22;6495;51.808;7.478;2022-09-23T07:21:46;10.50;99.90
12853;DHT22;6495;51.808;7.478;2022-09-23T07:24:14;10.60;99.90
12853;DHT22;6495;51.808;7.478;2022-09-23T07:26:43;10.70;99.90
12853;DHT22;6495;51.808;7.478;2022-09-23T07:29:12;10.70;99.90
12853;DHT22;6495;51.808;7.478;2022-09-23T07:31:40;10.80;99.90
12853;DHT22;6495;51.808;7.478;2022-09-23T07:34:10;10.90;99.90
12853;DHT22;6495;51.808;7.478;2022-09-23T07:36:39;10.90;99.90
12853;DHT22;6495;51.808;7.478;2022-09-23T07:39:08;11.00;99.90
12853;DHT22;6495;51.808;7.478;2022-09-23T07:41:37;11.10;99.90
12853;DHT22;6495;51.808;7.478;2022-09-23T07:44:08;11.20;99.90
12853;DHT22;6495;51.808;7.478;2022-09-23T07:46:37;11.30;99.90
12853;DHT22;6495;51.808;7.478;2022-09-23T07:49:05;11.40;99.90
12853;DHT22;6495;51.808;7.478;2022-09-23T07:51:37;11.50;99.90
12853;DHT22;6495;51.808;7.478;2022-09-23T07:54:09;11.60;99.90
12853;DHT22;6495;51.808;7.478;2022-09-23T07:56:39;11.70;99.90
12853;DHT22;6495;51.808;7.478;2022-09-23T07:59:11;11.70;99.90
12853;DHT22;6495;51.808;7.478;2022-09-23T08:01:44;11.80;99.90
12853;DHT22;6495;51.808;7.478;2022-09-23T08:04:16;12.00;99.90
12853;DHT22;6495;51.808;7.478;2022-09-23T08:06:50;12.10;99.90
12853;DHT22;6495;51.808;7.478;2022-09-23T08:09:22;12.20;99.90
12853;DHT22;6495;51.808;7.478;2022-09-23T08:11:52;12.40;99.90
12853;DHT22;6495;51.808;7.478;2022-09-23T08:14:20;12.50;99.90
12853;DHT22;6495;51.808;7.478;2022-09-23T08:16:51;12.60;99.90
12853;DHT22;6495;51.808;7.478;2022-09-23T08:19:19;12.80;99.90
12853;DHT22;6495;51.808;7.478;2022-09-23T08:21:49;12.90;99.90
12853;DHT22;6495;51.808;7.478;2022-09-23T08:24:21;13.00;99.90
12853;DHT22;6495;51.808;7.478;2022-09-23T08:26:51;13.10;99.90
12853;DHT22;6495;51.808;7.478;2022-09-23T08:29:21;13.30;99.90
12853;DHT22;6495;51.808;7.478;2022-09-23T08:31:52;13.30;99.90
12853;DHT22;6495;51.808;7.478;2022-09-23T08:34:22;13.40;99.90
12853;DHT22;6495;51.808;7.478;2022-09-23T08:36:54;13.50;99.90
12853;DHT22;6495;51.808;7.478;2022-09-23T08:39:23;13.60;99.90
12853;DHT22;6495;51.808;7.478;2022-09-23T08:42:02;13.60;99.90
12853;DHT22;6495;51.808;7.478;2022-09-23T08:44:45;13.70;99.90
12853;DHT22;6495;51.808;7.478;2022-09-23T08:47:20;13.80;99.90
12853;DHT22;6495;51.808;7.478;2022-09-23T08:49:56;13.80;99.90
12853;DHT22;6495;51.808;7.478;2022-09-23T08:52:32;13.90;99.90
12853;DHT22;6495;51.808;7.478;2022-09-23T08:55:08;13.90;99.90
12853;DHT22;6495;51.808;7.478;2022-09-23T08:57:44;14.00;99.90
12853;DHT22;6495;51.808;7.478;2022-09-23T09:00:50;14.00;99.90
12853;DHT22;6495;51.808;7.478;2022-09-23T09:03:31;14.10;99.90
12853;DHT22;6495;51.808;7.478;2022-09-23T09:06:03;14.10;99.90
12853;DHT22;6495;51.808;7.478;2022-09-23T09:08:35;14.10;99.90
12853;DHT22;6495;51.808;7.478;2022-09-23T09:11:05;14.20;99.90
12853;DHT22;6495;51.808;7.478;2022-09-23T09:13:38;14.20;99.90
12853;DHT22;6495;51.808;7.478;2022-09-23T09:16:26;14.20;99.90
12853;DHT22;6495;51.808;7.478;2022-09-23T09:19:51;14.30;99.90
12853;DHT22;6495;51.808;7.478;2022-09-23T09:22:29;14.40;99.90
12853;DHT22;6495;51.808;7.478;2022-09-23T09:25:20;14.40;99.90
12853;DHT22;6495;51.808;7.478;2022-09-23T09:27:51;14.50;99.90
12853;DHT22;6495;51.808;7.478;2022-09-23T09:30:22;14.50;99.90
12853;DHT22;6495;51.808;7.478;2022-09-23T09:32:55;14.60;99.90
12853;DHT22;6495;51.808;7.478;2022-09-23T09:35:33;14.60;99.90
12853;DHT22;6495;51.808;7.478;2022-09-23T09:38:05;14.70;99.90
12853;DHT22;6495;51.808;7.478;2022-09-23T09:40:40;14.70;99.90
12853;DHT22;6495;51.808;7.478;2022-09-23T09:43:15;14.80;99.90
12853;DHT22;6495;51.808;7.478;2022-09-23T09:45:56;14.80;99.90
12853;DHT22;6495;51.808;7.478;2022-09-23T09:48:37;14.90;99.90
12853;DHT22;6495;51.808;7.478;2022-09-23T09:51:18;15.00;99.90
12853;DHT22;6495;51.808;7.478;2022-09-23T09:53:48;15.10;99.90
12853;DHT22;6495;51.808;7.478;2022-09-23T09:56:20;15.10;99.90
12853;DHT22;6495;51.808;7.478;2022-09-23T09:58:54;15.20;99.90
12853;DHT22;6495;51.808;7.478;2022-09-23T10:01:28;15.30;99.90
12853;DHT22;6495;51.808;7.478;2022-09-23T10:04:03;15.30;99.90
12853;DHT22;6495;51.808;7.478;2022-09-23T10:06:34;15.40;99.90
12853;DHT22;6495;51.808;7.478;2022-09-23T10:09:08;15.50;99.90
12853;DHT22;6495;51.808;7.478;2022-09-23T10:11:40;15.60;99.90
12853;DHT22;6495;51.808;7.478;2022-09-23T10:14:12;15.70;99.90
12853;DHT22;6495;51.808;7.478;2022-09-23T10:16:44;15.80;99.90
12853;DHT22;6495;51.808;7.478;2022-09-23T10:19:23;15.80;99.90
12853;DHT22;6495;51.808;7.478;2022-09-23T10:21:54;15.90;99.90
12853;DHT22;6495;51.808;7.478;2022-09-23T10:24:28;16.00;99.90
12853;DHT22;6495;51.808;7.478;2022-09-23T10:27:02;16.10;99.90
12853;DHT22;6495;51.808;7.478;2022-09-23T10:29:37;16.10;99.90
12853;DHT22;6495;51.808;7.478;2022-09-23T10:32:22;16.20;99.90
12853;DHT22;6495;51.808;7.478;2022-09-23T10:34:54;16.20;99.90
12853;DHT22;6495;51.808;7.478;2022-09-23T10:37:33;16.30;99.90
12853;DHT22;6495;51.808;7.478;2022-09-23T10:40:17;16.30;99.90
12853;DHT22;6495;51.808;7.478;2022-09-23T10:43:24;16.40;99.90
12853;DHT22;6495;51.808;7.478;2022-09-23T10:46:17;16.40;99.90
12853;DHT22;6495;51.808;7.478;2022-09-23T10:49:30;16.50;99.90
12853;DHT22;6495;51.808;7.478;2022-09-23T10:52:45;16.50;99.90
12853;DHT22;6495;51.808;7.478;2022-09-23T10:55:35;16.50;99.90
12853;DHT22;6495;51.808;7.478;2022-09-23T10:58:23;16.50;99.90
12853;DHT22;6495;51.808;7.478;2022-09-23T11:01:13;16.50;99.90
12853;DHT22;6495;51.808;7.478;2022-09-23T11:04:17;16.60;99.90
12853;DHT22;6495;51.808;7.478;2022-09-23T11:07:04;16.60;99.90
12853;DHT22;6495;51.808;7.478;2022-09-23T11:09:51;16.60;99.90
12853;DHT22;6495;51.808;7.478;2022-09-23T11:12:54;16.60;99.90
12853;DHT22;6495;51.808;7.478;2022-09-23T11:15:38;16.70;99.90
12853;DHT22;6495;51.808;7.478;2022-09-23T11:21:51;16.70;99.90
12853;DHT22;6495;51.808;7.478;2022-09-23T11:28:00;16.90;99.90
12853;DHT22;6495;51.808;7.478;2022-09-23T11:30:51;17.00;99.90
12853;DHT22;6495;51.808;7.478;2022-09-23T11:33:35;17.10;99.90
12853;DHT22;6495;51.808;7.478;2022-09-23T11:36:22;17.20;99.90
12853;DHT22;6495;51.808;7.478;2022-09-23T11:38:55;17.30;99.90
12853;DHT22;6495;51.808;7.478;2022-09-23T11:41:28;17.40;99.90
12853;DHT22;6495;51.808;7.478;2022-09-23T11:44:05;17.50;99.90
12853;DHT22;6495;51.808;7.478;2022-09-23T11:46:41;17.60;99.40
12853;DHT22;6495;51.808;7.478;2022-09-23T11:49:15;17.70;99.10
12853;DHT22;6495;51.808;7.478;2022-09-23T11:51:59;17.70;98.70
12853;DHT22;6495;51.808;7.478;2022-09-23T11:54:36;17.80;98.50
12853;DHT22;6495;51.808;7.478;2022-09-23T11:57:25;17.90;98.80
12853;DHT22;6495;51.808;7.478;2022-09-23T12:00:15;18.00;98.70
12853;DHT22;6495;51.808;7.478;2022-09-23T12:02:59;18.10;98.70
12853;DHT22;6495;51.808;7.478;2022-09-23T12:05:38;18.20;97.70
12853;DHT22;6495;51.808;7.478;2022-09-23T12:08:14;18.30;98.40
12853;DHT22;6495;51.808;7.478;2022-09-23T12:10:54;18.40;98.10
12853;DHT22;6495;51.808;7.478;2022-09-23T12:13:38;18.40;97.80
12853;DHT22;6495;51.808;7.478;2022-09-23T12:16:59;18.50;97.70
12853;DHT22;6495;51.808;7.478;2022-09-23T12:20:09;18.50;96.80
12853;DHT22;6495;51.808;7.478;2022-09-23T12:22:55;18.60;96.50
12853;DHT22;6495;51.808;7.478;2022-09-23T12:25:41;18.70;97.60
12853;DHT22;6495;51.808;7.478;2022-09-23T12:28:16;18.70;97.30
12853;DHT22;6495;51.808;7.478;2022-09-23T12:30:48;18.80;96.90
12853;DHT22;6495;51.808;7.478;2022-09-23T12:33:21;18.90;97.00
12853;DHT22;6495;51.808;7.478;2022-09-23T12:35:55;18.90;96.60
12853;DHT22;6495;51.808;7.478;2022-09-23T12:38:33;18.90;96.30
12853;DHT22;6495;51.808;7.478;2022-09-23T12:41:18;19.00;96.00
12853;DHT22;6495;51.808;7.478;2022-09-23T12:43:52;19.00;93.70
12853;DHT22;6495;51.808;7.478;2022-09-23T12:46:23;18.90;94.90
12853;DHT22;6495;51.808;7.478;2022-09-23T12:49:00;18.90;94.70
12853;DHT22;6495;51.808;7.478;2022-09-23T12:51:33;18.90;94.90
12853;DHT22;6495;51.808;7.478;2022-09-23T12:54:21;18.90;94.70
12853;DHT22;6495;51.808;7.478;2022-09-23T12:56:59;18.90;93.50
12853;DHT22;6495;51.808;7.478;2022-09-23T12:59:54;18.90;93.70
12853;DHT22;6495;51.808;7.478;2022-09-23T13:07:05;19.00;93.40
12853;DHT22;6495;51.808;7.478;2022-09-23T13:09:39;19.00;94.20
12853;DHT22;6495;51.808;7.478;2022-09-23T13:12:16;19.00;94.10
12853;DHT22;6495;51.808;7.478;2022-09-23T13:14:52;19.00;93.70
12853;DHT22;6495;51.808;7.478;2022-09-23T13:17:28;19.10;93.90
12853;DHT22;6495;51.808;7.478;2022-09-23T13:20:01;19.10;94.40
12853;DHT22;6495;51.808;7.478;2022-09-23T13:23:03;19.10;94.00
12853;DHT22;6495;51.808;7.478;2022-09-23T13:25:55;19.20;92.30
12853;DHT22;6495;51.808;7.478;2022-09-23T13:28:29;19.20;93.50
12853;DHT22;6495;51.808;7.478;2022-09-23T13:31:03;19.20;93.30
12853;DHT22;6495;51.808;7.478;2022-09-23T13:33:37;19.20;93.10
12853;DHT22;6495;51.808;7.478;2022-09-23T13:36:11;19.20;93.20
12853;DHT22;6495;51.808;7.478;2022-09-23T13:38:44;19.20;93.40
12853;DHT22;6495;51.808;7.478;2022-09-23T13:41:22;19.20;93.30
12853;DHT22;6495;51.808;7.478;2022-09-23T13:43:56;19.30;93.20
12853;DHT22;6495;51.808;7.478;2022-09-23T13:46:27;19.30;93.10
12853;DHT22;6495;51.808;7.478;2022-09-23T13:48:57;19.30;93.00
12853;DHT22;6495;51.808;7.478;2022-09-23T13:51:27;19.30;93.10
12853;DHT22;6495;51.808;7.478;2022-09-23T13:54:02;19.40;93.10
12853;DHT22;6495;51.808;7.478;2022-09-23T13:56:35;19.40;92.90
12853;DHT22;6495;51.808;7.478;2022-09-23T13:59:18;19.40;92.90
12853;DHT22;6495;51.808;7.478;2022-09-23T14:02:01;19.40;92.70
12853;DHT22;6495;51.808;7.478;2022-09-23T14:04:30;19.50;92.80
12853;DHT22;6495;51.808;7.478;2022-09-23T14:06:59;19.50;92.90
12853;DHT22;6495;51.808;7.478;2022-09-23T14:09:29;19.60;92.90
12853;DHT22;6495;51.808;7.478;2022-09-23T14:11:59;19.60;92.90
12853;DHT22;6495;51.808;7.478;2022-09-23T14:14:29;19.60;92.70
12853;DHT22;6495;51.808;7.478;2022-09-23T14:16:57;19.60;92.50
12853;DHT22;6495;51.808;7.478;2022-09-23T14:19:26;19.50;92.20
12853;DHT22;6495;51.808;7.478;2022-09-23T14:21:57;19.50;92.20
12853;DHT22;6495;51.808;7.478;2022-09-23T14:24:32;19.60;92.20
12853;DHT22;6495;51.808;7.478;2022-09-23T14:27:09;19.50;91.90
12853;DHT22;6495;51.808;7.478;2022-09-23T14:29:42;19.50;91.80
12853;DHT22;6495;51.808;7.478;2022-09-23T14:32:16;19.50;91.80
12853;DHT22;6495;51.808;7.478;2022-09-23T14:34:49;19.50;91.80
12853;DHT22;6495;51.808;7.478;2022-09-23T14:37:23;19.50;91.80
12853;DHT22;6495;51.808;7.478;2022-09-23T14:40:16;19.50;91.90
12853;DHT22;6495;51.808;7.478;2022-09-23T14:42:49;19.50;91.50
12853;DHT22;6495;51.808;7.478;2022-09-23T14:45:20;19.50;91.50
12853;DHT22;6495;51.808;7.478;2022-09-23T14:47:56;19.50;91.30
12853;DHT22;6495;51.808;7.478;2022-09-23T14:50:28;19.50;91.40
12853;DHT22;6495;51.808;7.478;2022-09-23T14:53:29;19.50;91.30
12853;DHT22;6495;51.808;7.478;2022-09-23T14:56:18;19.50;91.20
12853;DHT22;6495;51.808;7.478;2022-09-23T14:58:52;19.50;91.30
12853;DHT22;6495;51.808;7.478;2022-09-23T15:01:39;19.50;91.50
12853;DHT22;6495;51.808;7.478;2022-09-23T15:04:13;19.50;91.00
12853;DHT22;6495;51.808;7.478;2022-09-23T15:06:52;19.50;91.20
12853;DHT22;6495;51.808;7.478;2022-09-23T15:09:25;19.60;91.20
12853;DHT22;6495;51.808;7.478;2022-09-23T15:11:59;19.60;91.40
12853;DHT22;6495;51.808;7.478;2022-09-23T15:14:35;19.60;91.40
12853;DHT22;6495;51.808;7.478;2022-09-23T15:17:23;19.60;91.30
12853;DHT22;6495;51.808;7.478;2022-09-23T15:19:58;19.60;91.20
12853;DHT22;6495;51.808;7.478;2022-09-23T15:22:28;19.60;91.30
12853;DHT22;6495;51.808;7.478;2022-09-23T15:25:15;19.60;91.10
12853;DHT22;6495;51.808;7.478;2022-09-23T15:27:57;19.60;90.90
12853;DHT22;6495;51.808;7.478;2022-09-23T15:30:28;19.60;91.00
12853;DHT22;6495;51.808;7.478;2022-09-23T15:32:57;19.50;91.00
12853;DHT22;6495;51.808;7.478;2022-09-23T15:35:28;19.50;90.90
12853;DHT22;6495;51.808;7.478;2022-09-23T15:37:58;19.50;91.00
12853;DHT22;6495;51.808;7.478;2022-09-23T15:40:35;19.50;90.90
12853;DHT22;6495;51.808;7.478;2022-09-23T15:43:13;19.50;90.90
12853;DHT22;6495;51.808;7.478;2022-09-23T15:45:54;19.50;90.90
12853;DHT22;6495;51.808;7.478;2022-09-23T15:48:27;19.40;90.90
12853;DHT22;6495;51.808;7.478;2022-09-23T15:51:03;19.50;90.90
12853;DHT22;6495;51.808;7.478;2022-09-23T15:53:35;19.50;90.90
12853;DHT22;6495;51.808;7.478;2022-09-23T15:56:04;19.40;90.80
12853;DHT22;6495;51.808;7.478;2022-09-23T15:58:34;19.40;90.80
12853;DHT22;6495;51.808;7.478;2022-09-23T16:01:02;19.40;90.80
12853;DHT22;6495;51.808;7.478;2022-09-23T16:03:31;19.40;90.90
12853;DHT22;6495;51.808;7.478;2022-09-23T16:06:00;19.40;91.00
12853;DHT22;6495;51.808;7.478;2022-09-23T16:08:29;19.40;91.10
12853;DHT22;6495;51.808;7.478;2022-09-23T16:10:58;19.40;91.10
12853;DHT22;6495;51.808;7.478;2022-09-23T16:13:26;19.30;91.10
12853;DHT22;6495;51.808;7.478;2022-09-23T16:15:56;19.40;91.20
12853;DHT22;6495;51.808;7.478;2022-09-23T16:18:24;19.30;91.20
12853;DHT22;6495;51.808;7.478;2022-09-23T16:20:52;19.30;91.30
12853;DHT22;6495;51.808;7.478;2022-09-23T16:23:23;19.30;91.30
12853;DHT22;6495;51.808;7.478;2022-09-23T16:26:02;19.30;91.30
12853;DHT22;6495;51.808;7.478;2022-09-23T16:28:33;19.30;91.50
12853;DHT22;6495;51.808;7.478;2022-09-23T16:31:02;19.30;91.50
12853;DHT22;6495;51.808;7.478;2022-09-23T16:33:31;19.20;91.50
12853;DHT22;6495;51.808;7.478;2022-09-23T16:35:59;19.20;91.60
12853;DHT22;6495;51.808;7.478;2022-09-23T16:38:28;19.20;91.70
12853;DHT22;6495;51.808;7.478;2022-09-23T16:40:57;19.20;91.70
12853;DHT22;6495;51.808;7.478;2022-09-23T16:43:26;19.20;91.70
12853;DHT22;6495;51.808;7.478;2022-09-23T16:46:06;19.10;91.60
12853;DHT22;6495;51.808;7.478;2022-09-23T16:48:34;19.10;91.70
12853;DHT22;6495;51.808;7.478;2022-09-23T16:51:06;19.10;91.60